createdAt,value
2023-04-05T00:00:42.035Z,11.07
2023-04-05T00:03:06.057Z,11.55
2023-04-05T00:05:31.359Z,9.77
2023-04-05T00:07:55.187Z,9.75
2023-04-05T00:10:18.729Z,10.85
2023-04-05T00:12:41.985Z,11.32
2023-04-05T00:15:06.075Z,13.45
2023-04-05T00:17:31.546Z,11.20
2023-04-05T00:19:57.351Z,9.63
2023-04-05T00:22:26.024Z,11.60
2023-04-05T00:24:49.317Z,10.38
2023-04-05T00:27:12.666Z,11.25
2023-04-05T00:29:36.092Z,11.15
2023-04-05T00:31:59.993Z,9.25
2023-04-05T00:34:25.320Z,12.18
2023-04-05T00:36:48.582Z,9.35
2023-04-05T00:39:12.002Z,11.40
2023-04-05T00:41:36.386Z,14.00
2023-04-05T00:44:00.556Z,9.48
2023-04-05T00:46:24.211Z,13.38
2023-04-05T00:48:47.959Z,9.52
2023-04-05T00:51:13.098Z,9.38
2023-04-05T00:53:37.603Z,12.23
2023-04-05T00:56:02.056Z,9.95
2023-04-05T00:58:25.421Z,13.60
2023-04-05T01:01:01.615Z,9.27
2023-04-05T01:03:27.632Z,11.70
2023-04-05T01:05:57.273Z,13.68
2023-04-05T01:08:30.499Z,11.27
2023-04-05T01:11:00.230Z,15.80
2023-04-05T01:13:26.048Z,14.15
2023-04-05T01:15:49.320Z,13.25
2023-04-05T01:18:13.972Z,9.55
2023-04-05T01:20:44.808Z,11.47
2023-04-05T01:23:38.893Z,12.75
2023-04-05T01:26:48.117Z,12.35
2023-04-05T01:29:46.994Z,15.98
2023-04-05T01:32:25.184Z,9.87
2023-04-05T01:34:57.108Z,11.50
2023-04-05T01:37:24.941Z,13.27
2023-04-05T01:39:51.124Z,11.57
2023-04-05T01:42:14.860Z,13.13
2023-04-05T01:44:39.495Z,12.10
2023-04-05T01:47:03.109Z,13.77
2023-04-05T01:49:26.949Z,13.70
2023-04-05T01:51:50.396Z,12.13
2023-04-05T01:54:14.066Z,10.90
2023-04-05T01:56:39.941Z,10.23
2023-04-05T01:59:03.347Z,13.00
2023-04-05T02:01:29.674Z,11.48
2023-04-05T02:03:54.091Z,11.35
2023-04-05T02:06:17.576Z,14.67
2023-04-05T02:08:40.805Z,14.00
2023-04-05T02:11:04.109Z,14.53
2023-04-05T02:13:27.379Z,10.27
2023-04-05T02:15:51.627Z,11.83
2023-04-05T02:18:16.353Z,13.60
2023-04-05T02:20:39.807Z,13.45
2023-04-05T02:23:03.262Z,12.15
2023-04-05T02:25:26.542Z,13.20
2023-04-05T02:27:50.343Z,12.80
2023-04-05T02:30:14.651Z,11.90
2023-04-05T02:32:38.702Z,14.45
2023-04-05T02:35:03.962Z,13.13
2023-04-05T02:37:27.336Z,10.07
2023-04-05T02:39:50.807Z,14.55
2023-04-05T02:42:14.157Z,15.10
2023-04-05T02:44:38.099Z,13.27
2023-04-05T02:47:01.582Z,13.37
2023-04-05T02:49:28.054Z,17.87
2023-04-05T02:51:55.935Z,12.53
2023-04-05T02:54:19.316Z,12.52
2023-04-05T02:56:43.597Z,15.00
2023-04-05T02:59:11.519Z,12.93
2023-04-05T03:01:36.492Z,14.43
2023-04-05T03:04:00.779Z,11.43
2023-04-05T03:06:24.524Z,15.83
2023-04-05T03:08:49.749Z,13.53
2023-04-05T03:11:21.230Z,15.20
2023-04-05T03:13:48.953Z,12.87
2023-04-05T03:16:24.741Z,13.48
2023-04-05T03:18:48.950Z,13.20
2023-04-05T03:21:12.741Z,15.50
2023-04-05T03:23:50.399Z,12.00
2023-04-05T03:26:18.658Z,13.33
2023-04-05T03:28:46.564Z,13.30
2023-04-05T03:31:10.743Z,13.43
2023-04-05T03:33:34.301Z,12.90
2023-04-05T03:35:57.934Z,13.20
2023-04-05T03:38:21.636Z,15.17
2023-04-05T03:41:04.622Z,14.70
2023-04-05T03:43:29.999Z,16.47
2023-04-05T03:45:53.330Z,14.43
2023-04-05T03:48:20.043Z,13.20
2023-04-05T03:50:44.859Z,10.00
2023-04-05T03:53:08.189Z,11.90
2023-04-05T03:55:33.128Z,16.30
2023-04-05T03:58:01.900Z,14.03
2023-04-05T04:00:30.258Z,14.63
2023-04-05T04:03:22.814Z,11.97
2023-04-05T04:05:48.270Z,15.10
2023-04-05T04:08:13.611Z,12.47
2023-04-05T04:10:37.099Z,12.53
2023-04-05T04:13:07.319Z,15.57
2023-04-05T04:15:31.485Z,15.63
2023-04-05T04:18:30.254Z,13.57
2023-04-05T04:21:08.394Z,12.80
2023-04-05T04:23:53.000Z,17.23
2023-04-05T04:26:37.575Z,13.60
2023-04-05T04:29:33.562Z,12.57
2023-04-05T04:32:17.218Z,13.10
2023-04-05T04:35:05.201Z,18.93
2023-04-05T04:37:37.600Z,15.07
2023-04-05T04:40:38.842Z,16.87
2023-04-05T04:43:27.610Z,15.23
2023-04-05T04:46:14.973Z,19.73
2023-04-05T04:48:55.447Z,14.80
2023-04-05T04:51:28.439Z,17.77
2023-04-05T04:53:51.616Z,16.10
2023-04-05T04:56:15.054Z,16.03
2023-04-05T04:58:38.293Z,19.33
2023-04-05T05:01:10.734Z,15.07
2023-04-05T05:03:36.606Z,14.03
2023-04-05T05:05:59.858Z,16.93
2023-04-05T05:08:27.574Z,16.80
2023-04-05T05:10:53.598Z,14.07
2023-04-05T05:13:16.933Z,16.93
2023-04-05T05:15:41.978Z,17.80
2023-04-05T05:18:06.899Z,21.07
2023-04-05T05:20:30.133Z,15.47
2023-04-05T05:22:53.410Z,16.43
2023-04-05T05:25:16.773Z,16.37
2023-04-05T05:27:40.109Z,21.63
2023-04-05T05:30:03.631Z,19.47
2023-04-05T05:32:27.252Z,16.20
2023-04-05T05:34:51.934Z,16.73
2023-04-05T05:37:16.652Z,16.27
2023-04-05T05:39:40.277Z,16.30
2023-04-05T05:42:04.138Z,17.63
2023-04-05T05:44:27.472Z,16.90
2023-04-05T05:46:50.718Z,18.47
2023-04-05T05:49:13.949Z,16.33
2023-04-05T05:51:38.500Z,19.53
2023-04-05T05:54:01.772Z,17.57
2023-04-05T05:56:25.017Z,16.10
2023-04-05T05:58:48.335Z,21.13
2023-04-05T06:01:11.989Z,19.23
2023-04-05T06:03:35.485Z,20.87
2023-04-05T06:06:03.059Z,19.33
2023-04-05T06:08:28.559Z,17.43
2023-04-05T06:10:53.573Z,25.23
2023-04-05T06:13:17.172Z,20.07
2023-04-05T06:15:40.453Z,17.63
2023-04-05T06:18:03.861Z,20.93
2023-04-05T06:20:27.152Z,17.97
2023-04-05T06:22:50.603Z,20.17
2023-04-05T06:25:16.480Z,23.00
2023-04-05T06:27:41.851Z,23.17
2023-04-05T06:30:05.875Z,23.47
2023-04-05T06:32:29.218Z,18.83
2023-04-05T06:34:53.752Z,17.70
2023-04-05T06:37:17.021Z,19.50
2023-04-05T06:39:40.418Z,22.67
2023-04-05T06:42:05.501Z,18.47
2023-04-05T06:44:36.727Z,19.37
2023-04-05T06:47:00.116Z,19.50
2023-04-05T06:49:23.411Z,22.57
2023-04-05T06:51:46.714Z,19.23
2023-04-05T06:54:10.505Z,18.50
2023-04-05T06:56:33.902Z,17.52
2023-04-05T06:58:59.604Z,11.80
2023-04-05T07:01:24.857Z,12.60
2023-04-05T07:03:48.229Z,14.27
2023-04-05T07:06:11.791Z,14.87
2023-04-05T07:08:35.051Z,13.20
2023-04-05T07:10:58.572Z,13.52
2023-04-05T07:13:23.792Z,9.97
2023-04-05T07:15:48.810Z,9.48
2023-04-05T07:18:12.115Z,12.00
2023-04-05T07:20:35.480Z,12.07
2023-04-05T07:22:58.950Z,9.95
2023-04-05T07:25:22.188Z,10.25
2023-04-05T07:27:45.544Z,11.55
2023-04-05T07:30:10.291Z,9.02
2023-04-05T07:32:36.102Z,9.98
2023-04-05T07:34:59.450Z,10.93
2023-04-05T07:37:22.747Z,10.98
2023-04-05T07:39:46.435Z,11.50
2023-04-05T07:42:09.734Z,12.77
2023-04-05T07:44:33.018Z,10.50
2023-04-05T07:46:56.688Z,9.20
2023-04-05T07:49:27.242Z,11.02
2023-04-05T07:51:51.737Z,8.50
2023-04-05T07:54:14.945Z,9.32
2023-04-05T07:56:39.002Z,12.70
2023-04-05T07:59:02.531Z,11.88
2023-04-05T08:01:27.842Z,9.95
2023-04-05T08:03:51.208Z,11.77
2023-04-05T08:06:18.273Z,10.98
2023-04-05T08:08:41.726Z,12.95
2023-04-05T08:11:05.282Z,11.25
2023-04-05T08:13:29.136Z,15.02
2023-04-05T08:15:52.429Z,11.15
2023-04-05T08:18:15.769Z,11.27
2023-04-05T08:20:40.762Z,12.63
2023-04-05T08:23:05.570Z,10.07
2023-04-05T08:25:28.832Z,10.02
2023-04-05T08:27:52.182Z,12.65
2023-04-05T08:30:16.608Z,10.20
2023-04-05T08:32:40.006Z,14.70
2023-04-05T08:35:03.610Z,11.73
2023-04-05T08:37:27.803Z,10.88
2023-04-05T08:39:52.645Z,14.05
2023-04-05T08:42:20.203Z,11.02
2023-04-05T08:44:45.845Z,16.70
2023-04-05T08:47:10.352Z,10.32
2023-04-05T08:49:34.237Z,12.15
2023-04-05T08:51:57.919Z,12.32
2023-04-05T08:54:21.195Z,9.82
2023-04-05T08:56:49.709Z,13.25
2023-04-05T08:59:14.244Z,11.98
2023-04-05T09:01:40.585Z,11.65
2023-04-05T09:04:08.948Z,11.30
2023-04-05T09:06:32.346Z,14.32
2023-04-05T09:08:58.313Z,16.20
2023-04-05T09:11:22.125Z,11.70
2023-04-05T09:13:46.850Z,12.95
2023-04-05T09:16:10.567Z,16.95
2023-04-05T09:18:33.894Z,14.18
2023-04-05T09:21:05.728Z,13.75
2023-04-05T09:23:30.647Z,11.50
2023-04-05T09:25:53.952Z,16.20
2023-04-05T09:28:17.242Z,14.38
2023-04-05T09:30:47.858Z,14.55
2023-04-05T09:33:11.633Z,11.65
2023-04-05T09:35:37.695Z,13.73
2023-04-05T09:38:03.278Z,15.07
2023-04-05T09:40:44.230Z,17.13
2023-04-05T09:43:07.540Z,15.98
2023-04-05T09:45:41.633Z,12.80
2023-04-05T09:48:05.118Z,15.45
2023-04-05T09:50:29.159Z,14.02
2023-04-05T09:53:08.049Z,12.80
2023-04-05T09:55:31.409Z,14.13
2023-04-05T09:57:54.755Z,16.25
2023-04-05T10:00:24.076Z,16.90
2023-04-05T10:02:54.405Z,15.73
2023-04-05T10:05:17.974Z,13.55
2023-04-05T10:07:41.575Z,12.73
2023-04-05T10:10:05.854Z,13.15
2023-04-05T10:12:29.605Z,13.73
2023-04-05T10:14:52.992Z,11.23
2023-04-05T10:17:25.347Z,11.18
2023-04-05T10:20:11.745Z,10.02
2023-04-05T10:22:42.786Z,17.13
2023-04-05T10:25:14.358Z,11.73
2023-04-05T10:27:48.888Z,10.07
2023-04-05T10:30:14.775Z,13.95
2023-04-05T10:32:56.965Z,12.90
2023-04-05T10:35:32.562Z,10.55
2023-04-05T10:38:14.233Z,15.07
2023-04-05T10:40:38.411Z,8.82
2023-04-05T10:43:01.951Z,11.35
2023-04-05T10:45:26.602Z,9.80
2023-04-05T10:47:56.385Z,11.00
2023-04-05T10:50:25.970Z,11.82
2023-04-05T10:52:50.449Z,10.38
2023-04-05T10:55:14.225Z,12.25
2023-04-05T10:57:38.698Z,11.68
2023-04-05T11:00:03.349Z,13.88
2023-04-05T11:02:27.267Z,12.20
2023-04-05T11:04:56.807Z,13.75
2023-04-05T11:07:21.561Z,9.00
2023-04-05T11:09:57.924Z,9.82
2023-04-05T11:12:21.302Z,8.55
2023-04-05T11:14:44.566Z,9.80
2023-04-05T11:17:26.253Z,12.10
2023-04-05T11:19:55.777Z,9.75
2023-04-05T11:22:29.705Z,12.43
2023-04-05T11:24:57.766Z,10.43
2023-04-05T11:27:27.781Z,8.88
2023-04-05T11:29:51.258Z,11.60
2023-04-05T11:32:14.670Z,9.35
2023-04-05T11:34:38.211Z,10.45
2023-04-05T11:37:01.479Z,11.55
2023-04-05T11:39:27.521Z,10.77
2023-04-05T11:42:06.546Z,10.60
2023-04-05T11:44:34.638Z,10.38
2023-04-05T11:46:58.670Z,13.35
2023-04-05T11:49:24.553Z,9.48
2023-04-05T11:51:49.029Z,9.05
2023-04-05T11:54:12.350Z,9.00
2023-04-05T11:56:37.621Z,10.23
2023-04-05T11:59:02.013Z,11.95
2023-04-05T12:01:25.727Z,12.65
2023-04-05T12:03:55.229Z,12.48
2023-04-05T12:06:18.683Z,10.48
2023-04-05T12:08:50.074Z,9.93
2023-04-05T12:11:13.884Z,8.93
2023-04-05T12:13:39.726Z,10.68
2023-04-05T12:16:06.094Z,13.10
2023-04-05T12:18:32.533Z,10.70
2023-04-05T12:20:56.535Z,15.63
2023-04-05T12:23:21.327Z,12.10
2023-04-05T12:25:48.145Z,15.25
2023-04-05T12:28:11.957Z,13.00
2023-04-05T12:30:38.536Z,13.27
2023-04-05T12:33:09.344Z,14.43
2023-04-05T12:35:35.148Z,10.30
2023-04-05T12:37:59.970Z,10.95
2023-04-05T12:40:24.821Z,15.18
2023-04-05T12:42:48.086Z,11.98
2023-04-05T12:45:15.542Z,13.30
2023-04-05T12:47:51.053Z,14.38
2023-04-05T12:50:17.046Z,13.02
2023-04-05T12:52:40.430Z,11.63
2023-04-05T12:55:03.731Z,12.10
2023-04-05T12:57:32.395Z,11.38
2023-04-05T12:59:55.588Z,13.02
2023-04-05T13:02:18.850Z,13.00
2023-04-05T13:04:43.430Z,10.38
2023-04-05T13:07:06.790Z,9.82
2023-04-05T13:09:32.320Z,13.38
2023-04-05T13:11:55.975Z,12.80
2023-04-05T13:14:19.189Z,13.93
2023-04-05T13:16:42.652Z,13.38
2023-04-05T13:19:05.954Z,11.70
2023-04-05T13:21:31.007Z,14.23
2023-04-05T13:23:54.262Z,11.30
2023-04-05T13:26:17.600Z,13.57
2023-04-05T13:28:40.906Z,10.63
2023-04-05T13:31:06.376Z,12.27
2023-04-05T13:33:29.779Z,13.07
2023-04-05T13:35:53.499Z,14.73
2023-04-05T13:38:18.140Z,15.70
2023-04-05T13:40:41.552Z,12.00
2023-04-05T13:43:04.968Z,13.20
2023-04-05T13:45:28.671Z,11.60
2023-04-05T13:47:51.965Z,11.77
2023-04-05T13:50:15.550Z,12.73
2023-04-05T13:52:38.799Z,11.73
2023-04-05T13:55:04.379Z,13.05
2023-04-05T13:57:27.725Z,14.95
2023-04-05T13:59:51.337Z,10.35
2023-04-05T14:02:15.075Z,11.82
2023-04-05T14:04:38.786Z,11.40
2023-04-05T14:07:02.022Z,12.45
2023-04-05T14:09:25.338Z,12.73
2023-04-05T14:11:49.949Z,12.07
2023-04-05T14:14:13.301Z,11.68
2023-04-05T14:16:38.049Z,12.20
2023-04-05T14:19:01.478Z,10.82
2023-04-05T14:21:26.521Z,13.25
2023-04-05T14:23:53.038Z,13.55
2023-04-05T14:26:16.483Z,12.05
2023-04-05T14:28:41.281Z,14.23
2023-04-05T14:31:05.188Z,11.75
2023-04-05T14:33:28.726Z,12.25
2023-04-05T14:35:52.130Z,10.85
2023-04-05T14:38:15.762Z,11.05
2023-04-05T14:40:39.614Z,12.00
2023-04-05T14:43:03.825Z,12.77
2023-04-05T14:45:28.726Z,14.25
2023-04-05T14:47:52.280Z,12.48
2023-04-05T14:50:15.965Z,10.23
2023-04-05T14:52:39.964Z,11.90
2023-04-05T14:55:03.578Z,16.58
2023-04-05T14:57:27.005Z,12.57
2023-04-05T14:59:50.502Z,12.65
2023-04-05T15:02:15.794Z,13.80
2023-04-05T15:04:41.228Z,9.93
2023-04-05T15:07:04.663Z,11.32
2023-04-05T15:09:28.137Z,14.82
2023-04-05T15:11:51.823Z,12.90
2023-04-05T15:14:28.580Z,19.25
2023-04-05T15:16:54.838Z,11.07
2023-04-05T15:19:19.612Z,10.40
2023-04-05T15:21:43.992Z,10.75
2023-04-05T15:24:07.937Z,12.30
2023-04-05T15:26:31.367Z,12.35
2023-04-05T15:28:54.974Z,12.70
2023-04-05T15:31:18.454Z,10.32
2023-04-05T15:33:42.057Z,10.75
2023-04-05T15:36:09.076Z,14.27
2023-04-05T15:38:32.461Z,11.10
2023-04-05T15:40:56.904Z,9.88
2023-04-05T15:43:20.530Z,10.15
2023-04-05T15:45:44.061Z,10.93
2023-04-05T15:48:07.758Z,11.45
2023-04-05T15:50:31.304Z,8.77
2023-04-05T15:52:56.323Z,10.50
2023-04-05T15:55:20.400Z,9.32
2023-04-05T15:57:44.179Z,10.23
2023-04-05T16:00:09.770Z,10.98
2023-04-05T16:02:33.259Z,11.32
2023-04-05T16:04:56.780Z,11.80
2023-04-05T16:07:20.329Z,11.82
2023-04-05T16:09:45.230Z,13.85
2023-04-05T16:12:08.703Z,11.05
2023-04-05T16:14:32.551Z,12.57
2023-04-05T16:16:56.051Z,12.60
2023-04-05T16:19:19.583Z,12.10
2023-04-05T16:21:43.191Z,11.73
2023-04-05T16:24:07.828Z,10.27
2023-04-05T16:26:33.055Z,11.75
2023-04-05T16:28:56.612Z,11.27
2023-04-05T16:31:20.087Z,10.80
2023-04-05T16:33:43.607Z,9.90
2023-04-05T16:36:07.610Z,10.20
2023-04-05T16:38:31.491Z,14.35
2023-04-05T16:40:54.926Z,12.85
2023-04-05T16:43:19.803Z,11.68
2023-04-05T16:45:44.211Z,10.00
2023-04-05T16:48:08.763Z,8.70
2023-04-05T16:50:32.293Z,9.82
2023-04-05T16:52:55.853Z,10.75
2023-04-05T16:55:19.507Z,12.32
2023-04-05T16:57:42.964Z,9.05
2023-04-05T17:00:10.045Z,8.95
2023-04-05T17:02:33.574Z,8.27
2023-04-05T17:04:57.075Z,10.60
2023-04-05T17:07:20.589Z,8.90
2023-04-05T17:09:43.990Z,9.60
2023-04-05T17:12:10.072Z,7.57
2023-04-05T17:14:35.042Z,5.88
2023-04-05T17:16:59.891Z,7.05
2023-04-05T17:19:23.670Z,7.75
2023-04-05T17:21:48.790Z,6.13
2023-04-05T17:24:12.385Z,10.18
2023-04-05T17:26:35.912Z,6.95
2023-04-05T17:28:59.342Z,7.47
2023-04-05T17:31:22.904Z,8.73
2023-04-05T17:33:48.739Z,17.45
2023-04-05T17:36:12.914Z,10.15
2023-04-05T17:38:36.406Z,15.95
2023-04-05T17:40:59.873Z,9.23
2023-04-05T17:43:23.380Z,8.32
2023-04-05T17:45:47.018Z,15.73
2023-04-05T17:48:10.788Z,9.55
2023-04-05T17:50:37.354Z,10.60
2023-04-05T17:53:00.833Z,8.05
2023-04-05T17:55:24.355Z,8.82
2023-04-05T17:57:47.737Z,9.68
2023-04-05T18:00:13.143Z,9.68
2023-04-05T18:02:37.914Z,9.15
2023-04-05T18:05:01.297Z,7.82
2023-04-05T18:07:27.158Z,7.45
2023-04-05T18:09:50.746Z,10.35
2023-04-05T18:12:14.181Z,15.00
2023-04-05T18:14:38.254Z,15.80
2023-04-05T18:17:01.978Z,12.60
2023-04-05T18:19:25.437Z,12.57
2023-04-05T18:21:48.924Z,11.80
2023-04-05T18:24:15.700Z,9.52
2023-04-05T18:26:39.205Z,9.43
2023-04-05T18:29:02.734Z,9.10
2023-04-05T18:31:26.407Z,11.45
2023-04-05T18:33:49.876Z,11.75
2023-04-05T18:36:13.789Z,11.23
2023-04-05T18:38:37.282Z,11.60
2023-04-05T18:41:04.253Z,10.68
2023-04-05T18:43:28.215Z,12.73
2023-04-05T18:45:55.834Z,11.70
2023-04-05T18:48:19.427Z,12.50
2023-04-05T18:50:43.244Z,10.93
2023-04-05T18:53:06.985Z,13.18
2023-04-05T18:55:30.472Z,10.30
2023-04-05T18:57:55.342Z,10.35
2023-04-05T19:00:19.236Z,8.93
2023-04-05T19:02:42.879Z,9.65
2023-04-05T19:05:07.807Z,12.02
2023-04-05T19:07:31.880Z,11.82
2023-04-05T19:09:55.343Z,13.15
2023-04-05T19:12:18.875Z,10.70
2023-04-05T19:14:43.742Z,13.80
2023-04-05T19:17:09.228Z,9.88
2023-04-05T19:19:32.795Z,12.45
2023-04-05T19:21:57.720Z,11.68
2023-04-05T19:24:21.931Z,17.67
2023-04-05T19:26:46.015Z,12.02
2023-04-05T19:29:09.843Z,14.43
2023-04-05T19:31:35.022Z,13.02
2023-04-05T19:33:58.539Z,16.90
2023-04-05T19:36:21.997Z,14.65
2023-04-05T19:38:45.890Z,16.80
2023-04-05T19:41:09.708Z,16.35
2023-04-05T19:43:33.420Z,15.23
2023-04-05T19:45:59.720Z,14.70
2023-04-05T19:48:39.991Z,14.77
2023-04-05T19:51:06.735Z,15.52
2023-04-05T19:53:43.866Z,15.10
2023-04-05T19:56:12.405Z,14.13
2023-04-05T19:58:36.354Z,13.82
2023-04-05T20:00:59.859Z,12.13
2023-04-05T20:03:30.603Z,14.65
2023-04-05T20:06:12.509Z,11.95
2023-04-05T20:08:38.515Z,12.85
2023-04-05T20:11:01.975Z,14.65
2023-04-05T20:13:25.980Z,14.45
2023-04-05T20:15:50.786Z,14.20
2023-04-05T20:18:26.412Z,12.93
2023-04-05T20:20:49.939Z,12.63
2023-04-05T20:23:19.530Z,13.18
2023-04-05T20:25:46.413Z,19.67
2023-04-05T20:28:38.014Z,24.00
2023-04-05T20:31:02.024Z,24.10
2023-04-05T20:33:48.009Z,24.23
2023-04-05T20:36:13.000Z,28.33
2023-04-05T20:38:38.635Z,20.85
2023-04-05T20:41:02.229Z,20.83
2023-04-05T20:43:25.624Z,22.40
2023-04-05T20:45:49.229Z,19.20
2023-04-05T20:48:12.803Z,16.90
2023-04-05T20:50:36.487Z,18.50
2023-04-05T20:52:59.917Z,17.48
2023-04-05T20:55:24.752Z,21.15
2023-04-05T20:57:48.298Z,18.52
2023-04-05T21:00:13.607Z,18.27
2023-04-05T21:02:37.175Z,22.05
2023-04-05T21:05:00.693Z,17.65
2023-04-05T21:07:24.159Z,15.13
2023-04-05T21:09:47.617Z,18.90
2023-04-05T21:12:12.440Z,16.20
2023-04-05T21:14:36.037Z,16.85
2023-04-05T21:16:59.464Z,17.35
2023-04-05T21:19:22.901Z,16.80
2023-04-05T21:21:46.314Z,15.80
2023-04-05T21:24:09.748Z,15.48
2023-04-05T21:26:33.211Z,16.35
2023-04-05T21:28:58.433Z,16.23
2023-04-05T21:31:22.058Z,18.95
2023-04-05T21:33:45.539Z,14.45
2023-04-05T21:36:09.208Z,20.45
2023-04-05T21:38:32.725Z,17.13
2023-04-05T21:40:56.486Z,19.67
2023-04-05T21:43:19.940Z,16.02
2023-04-05T21:45:45.826Z,16.02
2023-04-05T21:48:09.326Z,15.88
2023-04-05T21:50:32.960Z,15.50
2023-04-05T21:52:56.348Z,16.83
2023-04-05T21:55:19.936Z,19.13
2023-04-05T21:57:44.331Z,16.08
2023-04-05T22:00:11.773Z,21.02
2023-04-05T22:02:40.176Z,17.45
2023-04-05T22:05:04.401Z,15.38
2023-04-05T22:07:28.073Z,16.33
2023-04-05T22:09:51.704Z,17.30
2023-04-05T22:12:15.338Z,17.67
2023-04-05T22:14:39.080Z,16.83
2023-04-05T22:17:03.040Z,16.20
2023-04-05T22:19:27.865Z,17.65
2023-04-05T22:21:51.413Z,15.02
2023-04-05T22:24:15.569Z,14.50
2023-04-05T22:26:39.626Z,14.80
2023-04-05T22:29:03.235Z,17.52
2023-04-05T22:31:26.703Z,13.32
2023-04-05T22:33:50.164Z,15.57
2023-04-05T22:36:14.934Z,14.68
2023-04-05T22:38:38.458Z,15.93
2023-04-05T22:41:01.832Z,15.77
2023-04-05T22:43:25.281Z,15.73
2023-04-05T22:45:51.949Z,14.20
2023-04-05T22:48:15.379Z,20.27
2023-04-05T22:50:38.867Z,12.40
2023-04-05T22:53:03.671Z,15.25
2023-04-05T22:55:27.118Z,15.70
2023-04-05T22:57:50.921Z,14.90
2023-04-05T23:00:15.920Z,17.85
2023-04-05T23:02:39.389Z,17.33
2023-04-05T23:05:03.016Z,14.52
2023-04-05T23:07:27.069Z,14.38
2023-04-05T23:09:51.847Z,13.43
2023-04-05T23:12:16.469Z,14.82
2023-04-05T23:14:39.965Z,13.95
2023-04-05T23:17:04.901Z,15.93
2023-04-05T23:19:28.288Z,16.75
2023-04-05T23:21:51.717Z,18.95
2023-04-05T23:24:15.102Z,19.80
2023-04-05T23:26:39.986Z,17.67
2023-04-05T23:29:03.425Z,15.63
2023-04-05T23:31:26.869Z,19.40
2023-04-05T23:33:50.394Z,12.77
2023-04-05T23:36:13.811Z,21.15
2023-04-05T23:38:37.260Z,15.27
2023-04-05T23:41:00.688Z,16.52
2023-04-05T23:43:25.609Z,18.10
2023-04-05T23:45:49.023Z,16.02
2023-04-05T23:48:12.480Z,16.70
2023-04-05T23:50:36.068Z,16.85
2023-04-05T23:53:01.041Z,16.75
2023-04-05T23:55:24.546Z,17.20
2023-04-05T23:57:48.333Z,15.38
